sensor_id;sensor_type;location;lat;lon;timestamp;P1;durP1;ratioP1;P2;durP2;ratioP2
70026;SDS011;57506;50.092;15.804;2022-09-29T00:00:55;12.50;;;7.00;;
70026;SDS011;57506;50.092;15.804;2022-09-29T00:03:21;12.40;;;6.20;;
70026;SDS011;57506;50.092;15.804;2022-09-29T00:05:48;11.70;;;5.70;;
70026;SDS011;57506;50.092;15.804;2022-09-29T00:08:15;12.90;;;5.75;;
70026;SDS011;57506;50.092;15.804;2022-09-29T00:10:42;18.25;;;6.53;;
70026;SDS011;57506;50.092;15.804;2022-09-29T00:13:08;11.77;;;6.60;;
70026;SDS011;57506;50.092;15.804;2022-09-29T00:15:33;15.48;;;6.78;;
70026;SDS011;57506;50.092;15.804;2022-09-29T00:17:59;13.60;;;7.10;;
70026;SDS011;57506;50.092;15.804;2022-09-29T00:20:24;22.60;;;8.50;;
70026;SDS011;57506;50.092;15.804;2022-09-29T00:22:50;14.03;;;7.63;;
70026;SDS011;57506;50.092;15.804;2022-09-29T00:25:16;17.20;;;8.67;;
70026;SDS011;57506;50.092;15.804;2022-09-29T00:27:42;16.33;;;8.98;;
70026;SDS011;57506;50.092;15.804;2022-09-29T00:30:08;16.83;;;8.77;;
70026;SDS011;57506;50.092;15.804;2022-09-29T00:32:34;17.80;;;7.97;;
70026;SDS011;57506;50.092;15.804;2022-09-29T00:34:59;19.58;;;7.22;;
70026;SDS011;57506;50.092;15.804;2022-09-29T00:37:25;16.40;;;7.30;;
70026;SDS011;57506;50.092;15.804;2022-09-29T00:39:51;13.77;;;7.10;;
70026;SDS011;57506;50.092;15.804;2022-09-29T00:42:18;13.10;;;7.22;;
70026;SDS011;57506;50.092;15.804;2022-09-29T00:44:58;16.25;;;7.35;;
70026;SDS011;57506;50.092;15.804;2022-09-29T00:47:30;13.60;;;6.95;;
70026;SDS011;57506;50.092;15.804;2022-09-29T00:50:04;13.10;;;6.60;;
70026;SDS011;57506;50.092;15.804;2022-09-29T00:52:42;13.93;;;6.57;;
70026;SDS011;57506;50.092;15.804;2022-09-29T00:57:51;10.32;;;5.85;;
70026;SDS011;57506;50.092;15.804;2022-09-29T01:00:25;13.43;;;6.43;;
70026;SDS011;57506;50.092;15.804;2022-09-29T01:02:56;13.13;;;6.43;;
70026;SDS011;57506;50.092;15.804;2022-09-29T01:05:36;10.70;;;5.90;;
70026;SDS011;57506;50.092;15.804;2022-09-29T01:08:12;10.90;;;5.80;;
70026;SDS011;57506;50.092;15.804;2022-09-29T01:10:44;13.25;;;6.00;;
70026;SDS011;57506;50.092;15.804;2022-09-29T01:13:12;11.80;;;5.45;;
70026;SDS011;57506;50.092;15.804;2022-09-29T01:15:39;15.55;;;6.50;;
70026;SDS011;57506;50.092;15.804;2022-09-29T01:18:04;12.00;;;6.30;;
70026;SDS011;57506;50.092;15.804;2022-09-29T01:20:31;12.65;;;6.25;;
70026;SDS011;57506;50.092;15.804;2022-09-29T01:28:55;10.57;;;5.45;;
70026;SDS011;57506;50.092;15.804;2022-09-29T01:40:47;11.30;;;5.40;;
70026;SDS011;57506;50.092;15.804;2022-09-29T01:43:34;12.82;;;5.60;;
70026;SDS011;57506;50.092;15.804;2022-09-29T01:46:05;11.25;;;5.47;;
70026;SDS011;57506;50.092;15.804;2022-09-29T01:48:58;12.43;;;5.18;;
70026;SDS011;57506;50.092;15.804;2022-09-29T01:51:28;11.20;;;4.68;;
70026;SDS011;57506;50.092;15.804;2022-09-29T01:54:01;11.87;;;5.37;;
70026;SDS011;57506;50.092;15.804;2022-09-29T01:56:39;11.20;;;5.50;;
70026;SDS011;57506;50.092;15.804;2022-09-29T02:00:10;13.80;;;5.63;;
70026;SDS011;57506;50.092;15.804;2022-09-29T02:02:29;12.43;;;5.75;;
70026;SDS011;57506;50.092;15.804;2022-09-29T02:05:02;11.90;;;6.63;;
70026;SDS011;57506;50.092;15.804;2022-09-29T02:07:33;12.63;;;6.47;;
70026;SDS011;57506;50.092;15.804;2022-09-29T02:10:04;12.90;;;6.32;;
70026;SDS011;57506;50.092;15.804;2022-09-29T02:12:34;14.38;;;6.65;;
70026;SDS011;57506;50.092;15.804;2022-09-29T02:15:04;10.95;;;5.80;;
70026;SDS011;57506;50.092;15.804;2022-09-29T02:17:35;11.65;;;5.55;;
70026;SDS011;57506;50.092;15.804;2022-09-29T02:20:02;12.03;;;5.53;;
70026;SDS011;57506;50.092;15.804;2022-09-29T02:22:29;11.05;;;5.65;;
70026;SDS011;57506;50.092;15.804;2022-09-29T02:24:55;11.45;;;6.10;;
70026;SDS011;57506;50.092;15.804;2022-09-29T02:27:23;10.80;;;5.20;;
70026;SDS011;57506;50.092;15.804;2022-09-29T02:29:51;11.97;;;5.23;;
70026;SDS011;57506;50.092;15.804;2022-09-29T02:32:17;9.05;;;4.88;;
70026;SDS011;57506;50.092;15.804;2022-09-29T02:34:44;10.50;;;5.53;;
70026;SDS011;57506;50.092;15.804;2022-09-29T02:58:24;9.52;;;4.63;;
70026;SDS011;57506;50.092;15.804;2022-09-29T03:00:55;12.77;;;5.90;;
70026;SDS011;57506;50.092;15.804;2022-09-29T03:03:22;14.07;;;6.03;;
70026;SDS011;57506;50.092;15.804;2022-09-29T03:05:47;13.57;;;6.38;;
70026;SDS011;57506;50.092;15.804;2022-09-29T03:08:13;11.40;;;5.90;;
70026;SDS011;57506;50.092;15.804;2022-09-29T03:10:38;11.57;;;5.53;;
70026;SDS011;57506;50.092;15.804;2022-09-29T03:13:04;12.48;;;6.35;;
70026;SDS011;57506;50.092;15.804;2022-09-29T03:15:29;12.50;;;5.93;;
70026;SDS011;57506;50.092;15.804;2022-09-29T03:17:55;12.23;;;5.53;;
70026;SDS011;57506;50.092;15.804;2022-09-29T03:20:21;12.02;;;5.05;;
70026;SDS011;57506;50.092;15.804;2022-09-29T03:22:47;10.83;;;5.10;;
70026;SDS011;57506;50.092;15.804;2022-09-29T03:25:12;9.67;;;5.07;;
70026;SDS011;57506;50.092;15.804;2022-09-29T03:27:38;14.85;;;5.70;;
70026;SDS011;57506;50.092;15.804;2022-09-29T03:30:05;11.63;;;5.35;;
70026;SDS011;57506;50.092;15.804;2022-09-29T03:32:31;9.70;;;4.97;;
70026;SDS011;57506;50.092;15.804;2022-09-29T03:34:56;14.00;;;5.50;;
70026;SDS011;57506;50.092;15.804;2022-09-29T03:37:22;11.23;;;4.87;;
70026;SDS011;57506;50.092;15.804;2022-09-29T03:39:47;10.37;;;4.90;;
70026;SDS011;57506;50.092;15.804;2022-09-29T03:42:13;11.35;;;5.07;;
70026;SDS011;57506;50.092;15.804;2022-09-29T03:44:38;10.80;;;6.07;;
70026;SDS011;57506;50.092;15.804;2022-09-29T03:47:04;13.83;;;5.27;;
70026;SDS011;57506;50.092;15.804;2022-09-29T03:49:29;12.68;;;5.60;;
70026;SDS011;57506;50.092;15.804;2022-09-29T03:51:55;23.33;;;5.77;;
70026;SDS011;57506;50.092;15.804;2022-09-29T03:54:21;16.73;;;6.17;;
70026;SDS011;57506;50.092;15.804;2022-09-29T03:56:48;11.02;;;5.32;;
70026;SDS011;57506;50.092;15.804;2022-09-29T03:59:14;15.25;;;5.93;;
70026;SDS011;57506;50.092;15.804;2022-09-29T04:01:40;10.67;;;5.30;;
70026;SDS011;57506;50.092;15.804;2022-09-29T04:04:05;11.60;;;5.85;;
70026;SDS011;57506;50.092;15.804;2022-09-29T04:06:32;12.90;;;5.60;;
70026;SDS011;57506;50.092;15.804;2022-09-29T04:08:58;9.53;;;4.87;;
70026;SDS011;57506;50.092;15.804;2022-09-29T04:11:24;9.13;;;5.00;;
70026;SDS011;57506;50.092;15.804;2022-09-29T04:13:49;10.07;;;4.88;;
70026;SDS011;57506;50.092;15.804;2022-09-29T04:16:15;10.60;;;4.40;;
70026;SDS011;57506;50.092;15.804;2022-09-29T04:18:40;13.20;;;5.63;;
70026;SDS011;57506;50.092;15.804;2022-09-29T04:21:06;11.88;;;5.97;;
70026;SDS011;57506;50.092;15.804;2022-09-29T04:23:32;10.63;;;5.60;;
70026;SDS011;57506;50.092;15.804;2022-09-29T04:25:58;12.77;;;5.43;;
70026;SDS011;57506;50.092;15.804;2022-09-29T04:28:25;12.98;;;5.93;;
70026;SDS011;57506;50.092;15.804;2022-09-29T04:30:50;12.00;;;5.53;;
70026;SDS011;57506;50.092;15.804;2022-09-29T04:33:16;11.87;;;4.83;;
70026;SDS011;57506;50.092;15.804;2022-09-29T04:35:42;10.77;;;5.28;;
70026;SDS011;57506;50.092;15.804;2022-09-29T04:38:07;10.07;;;5.07;;
70026;SDS011;57506;50.092;15.804;2022-09-29T04:40:34;9.35;;;4.70;;
70026;SDS011;57506;50.092;15.804;2022-09-29T04:43:00;8.93;;;5.00;;
70026;SDS011;57506;50.092;15.804;2022-09-29T04:45:26;10.75;;;5.20;;
70026;SDS011;57506;50.092;15.804;2022-09-29T04:47:52;9.70;;;4.30;;
70026;SDS011;57506;50.092;15.804;2022-09-29T04:50:17;12.20;;;5.18;;
70026;SDS011;57506;50.092;15.804;2022-09-29T04:52:43;10.77;;;4.97;;
70026;SDS011;57506;50.092;15.804;2022-09-29T04:55:09;11.50;;;5.23;;
70026;SDS011;57506;50.092;15.804;2022-09-29T04:57:36;10.75;;;4.90;;
70026;SDS011;57506;50.092;15.804;2022-09-29T05:00:03;9.45;;;4.53;;
70026;SDS011;57506;50.092;15.804;2022-09-29T05:02:30;11.48;;;4.45;;
70026;SDS011;57506;50.092;15.804;2022-09-29T05:04:56;8.13;;;4.10;;
70026;SDS011;57506;50.092;15.804;2022-09-29T05:07:21;8.20;;;4.27;;
70026;SDS011;57506;50.092;15.804;2022-09-29T05:09:47;9.60;;;4.13;;
70026;SDS011;57506;50.092;15.804;2022-09-29T05:12:12;10.93;;;4.50;;
70026;SDS011;57506;50.092;15.804;2022-09-29T05:14:38;9.90;;;4.28;;
70026;SDS011;57506;50.092;15.804;2022-09-29T05:17:04;10.43;;;4.60;;
70026;SDS011;57506;50.092;15.804;2022-09-29T05:19:29;7.28;;;3.88;;
70026;SDS011;57506;50.092;15.804;2022-09-29T05:21:56;9.17;;;4.27;;
70026;SDS011;57506;50.092;15.804;2022-09-29T05:24:25;10.40;;;4.63;;
70026;SDS011;57506;50.092;15.804;2022-09-29T05:26:52;8.98;;;4.82;;
70026;SDS011;57506;50.092;15.804;2022-09-29T05:29:18;7.93;;;3.95;;
70026;SDS011;57506;50.092;15.804;2022-09-29T05:31:44;27.30;;;5.67;;
70026;SDS011;57506;50.092;15.804;2022-09-29T05:34:09;13.73;;;4.13;;
70026;SDS011;57506;50.092;15.804;2022-09-29T05:36:35;10.80;;;3.67;;
70026;SDS011;57506;50.092;15.804;2022-09-29T05:39:00;7.80;;;3.30;;
70026;SDS011;57506;50.092;15.804;2022-09-29T05:41:26;8.30;;;3.92;;
70026;SDS011;57506;50.092;15.804;2022-09-29T05:43:52;7.80;;;3.63;;
70026;SDS011;57506;50.092;15.804;2022-09-29T05:46:19;7.63;;;3.50;;
70026;SDS011;57506;50.092;15.804;2022-09-29T05:48:46;7.43;;;3.90;;
70026;SDS011;57506;50.092;15.804;2022-09-29T05:51:14;8.63;;;4.70;;
70026;SDS011;57506;50.092;15.804;2022-09-29T05:53:41;10.48;;;5.10;;
70026;SDS011;57506;50.092;15.804;2022-09-29T05:56:14;13.15;;;6.32;;
70026;SDS011;57506;50.092;15.804;2022-09-29T05:58:43;12.55;;;6.15;;
70026;SDS011;57506;50.092;15.804;2022-09-29T06:01:10;13.17;;;6.17;;
70026;SDS011;57506;50.092;15.804;2022-09-29T06:03:37;16.25;;;6.50;;
70026;SDS011;57506;50.092;15.804;2022-09-29T06:06:06;13.77;;;7.50;;
70026;SDS011;57506;50.092;15.804;2022-09-29T06:08:35;12.35;;;6.47;;
70026;SDS011;57506;50.092;15.804;2022-09-29T06:13:31;23.98;;;8.30;;
70026;SDS011;57506;50.092;15.804;2022-09-29T06:15:59;28.98;;;9.15;;
70026;SDS011;57506;50.092;15.804;2022-09-29T06:18:25;19.33;;;8.40;;
70026;SDS011;57506;50.092;15.804;2022-09-29T06:20:50;25.30;;;7.57;;
70026;SDS011;57506;50.092;15.804;2022-09-29T06:23:16;14.97;;;7.73;;
70026;SDS011;57506;50.092;15.804;2022-09-29T06:25:42;15.93;;;7.60;;
70026;SDS011;57506;50.092;15.804;2022-09-29T06:28:07;12.83;;;7.13;;
70026;SDS011;57506;50.092;15.804;2022-09-29T06:30:33;15.80;;;7.00;;
70026;SDS011;57506;50.092;15.804;2022-09-29T06:32:58;10.70;;;6.68;;
70026;SDS011;57506;50.092;15.804;2022-09-29T06:35:24;11.07;;;6.87;;
70026;SDS011;57506;50.092;15.804;2022-09-29T06:38:08;11.35;;;6.63;;
70026;SDS011;57506;50.092;15.804;2022-09-29T06:40:34;11.70;;;5.53;;
70026;SDS011;57506;50.092;15.804;2022-09-29T06:42:59;9.93;;;5.67;;
70026;SDS011;57506;50.092;15.804;2022-09-29T06:45:25;11.52;;;5.43;;
70026;SDS011;57506;50.092;15.804;2022-09-29T06:47:56;9.60;;;5.10;;
70026;SDS011;57506;50.092;15.804;2022-09-29T06:50:23;11.10;;;6.00;;
70026;SDS011;57506;50.092;15.804;2022-09-29T06:52:48;12.03;;;4.90;;
70026;SDS011;57506;50.092;15.804;2022-09-29T06:55:14;11.57;;;5.35;;
70026;SDS011;57506;50.092;15.804;2022-09-29T06:57:39;11.37;;;5.23;;
70026;SDS011;57506;50.092;15.804;2022-09-29T07:00:05;10.05;;;5.57;;
70026;SDS011;57506;50.092;15.804;2022-09-29T07:02:31;11.73;;;4.70;;
70026;SDS011;57506;50.092;15.804;2022-09-29T07:04:56;12.57;;;4.28;;
70026;SDS011;57506;50.092;15.804;2022-09-29T07:07:22;6.77;;;3.80;;
70026;SDS011;57506;50.092;15.804;2022-09-29T07:09:48;8.20;;;4.10;;
70026;SDS011;57506;50.092;15.804;2022-09-29T07:12:13;8.70;;;3.60;;
70026;SDS011;57506;50.092;15.804;2022-09-29T07:14:39;8.83;;;3.53;;
70026;SDS011;57506;50.092;15.804;2022-09-29T07:17:04;9.63;;;4.00;;
70026;SDS011;57506;50.092;15.804;2022-09-29T07:19:30;8.45;;;3.70;;
70026;SDS011;57506;50.092;15.804;2022-09-29T07:21:56;10.02;;;3.85;;
70026;SDS011;57506;50.092;15.804;2022-09-29T07:24:22;10.10;;;3.67;;
70026;SDS011;57506;50.092;15.804;2022-09-29T07:26:48;7.53;;;3.75;;
70026;SDS011;57506;50.092;15.804;2022-09-29T07:29:14;7.53;;;3.70;;
70026;SDS011;57506;50.092;15.804;2022-09-29T07:31:40;11.65;;;5.13;;
70026;SDS011;57506;50.092;15.804;2022-09-29T07:34:05;10.55;;;4.00;;
70026;SDS011;57506;50.092;15.804;2022-09-29T07:36:31;11.87;;;4.20;;
70026;SDS011;57506;50.092;15.804;2022-09-29T07:38:57;8.93;;;3.90;;
70026;SDS011;57506;50.092;15.804;2022-09-29T07:41:23;9.73;;;3.60;;
70026;SDS011;57506;50.092;15.804;2022-09-29T07:43:48;8.82;;;4.15;;
70026;SDS011;57506;50.092;15.804;2022-09-29T07:46:14;10.97;;;3.73;;
70026;SDS011;57506;50.092;15.804;2022-09-29T07:48:40;11.02;;;4.15;;
70026;SDS011;57506;50.092;15.804;2022-09-29T07:51:08;8.50;;;4.45;;
70026;SDS011;57506;50.092;15.804;2022-09-29T07:53:36;8.63;;;4.17;;
70026;SDS011;57506;50.092;15.804;2022-09-29T07:58:31;11.65;;;4.65;;
70026;SDS011;57506;50.092;15.804;2022-09-29T08:00:58;8.95;;;4.20;;
70026;SDS011;57506;50.092;15.804;2022-09-29T08:03:25;10.63;;;4.38;;
70026;SDS011;57506;50.092;15.804;2022-09-29T08:05:51;9.20;;;4.20;;
70026;SDS011;57506;50.092;15.804;2022-09-29T08:08:17;9.98;;;4.88;;
70026;SDS011;57506;50.092;15.804;2022-09-29T08:10:43;9.13;;;5.27;;
70026;SDS011;57506;50.092;15.804;2022-09-29T08:13:09;7.77;;;4.00;;
70026;SDS011;57506;50.092;15.804;2022-09-29T08:15:34;9.73;;;4.17;;
70026;SDS011;57506;50.092;15.804;2022-09-29T08:18:00;9.77;;;4.50;;
70026;SDS011;57506;50.092;15.804;2022-09-29T08:20:25;7.67;;;4.07;;
70026;SDS011;57506;50.092;15.804;2022-09-29T08:22:51;10.50;;;4.20;;
70026;SDS011;57506;50.092;15.804;2022-09-29T08:25:19;7.40;;;3.83;;
70026;SDS011;57506;50.092;15.804;2022-09-29T08:27:44;8.90;;;3.63;;
70026;SDS011;57506;50.092;15.804;2022-09-29T08:30:10;10.93;;;4.47;;
70026;SDS011;57506;50.092;15.804;2022-09-29T08:32:36;8.25;;;3.60;;
70026;SDS011;57506;50.092;15.804;2022-09-29T08:35:03;7.97;;;3.60;;
70026;SDS011;57506;50.092;15.804;2022-09-29T08:37:29;9.90;;;3.90;;
70026;SDS011;57506;50.092;15.804;2022-09-29T08:39:55;10.18;;;4.07;;
70026;SDS011;57506;50.092;15.804;2022-09-29T08:45:40;9.10;;;3.90;;
70026;SDS011;57506;50.092;15.804;2022-09-29T08:48:16;8.98;;;3.45;;
70026;SDS011;57506;50.092;15.804;2022-09-29T08:50:47;7.20;;;3.60;;
70026;SDS011;57506;50.092;15.804;2022-09-29T08:53:20;6.53;;;3.20;;
70026;SDS011;57506;50.092;15.804;2022-09-29T08:55:55;6.68;;;3.50;;
70026;SDS011;57506;50.092;15.804;2022-09-29T08:58:24;7.17;;;4.07;;
70026;SDS011;57506;50.092;15.804;2022-09-29T09:11:48;7.60;;;3.08;;
70026;SDS011;57506;50.092;15.804;2022-09-29T09:27:40;6.20;;;2.45;;
70026;SDS011;57506;50.092;15.804;2022-09-29T09:30:12;7.10;;;2.90;;
70026;SDS011;57506;50.092;15.804;2022-09-29T09:32:44;6.95;;;2.85;;
70026;SDS011;57506;50.092;15.804;2022-09-29T09:38:19;6.75;;;2.58;;
70026;SDS011;57506;50.092;15.804;2022-09-29T09:40:51;4.95;;;2.28;;
70026;SDS011;57506;50.092;15.804;2022-09-29T09:43:40;7.45;;;2.38;;
70026;SDS011;57506;50.092;15.804;2022-09-29T09:52:09;5.05;;;2.22;;
70026;SDS011;57506;50.092;15.804;2022-09-29T09:54:43;7.03;;;2.40;;
70026;SDS011;57506;50.092;15.804;2022-09-29T10:00:11;6.53;;;2.38;;
70026;SDS011;57506;50.092;15.804;2022-09-29T10:02:42;5.07;;;2.37;;
70026;SDS011;57506;50.092;15.804;2022-09-29T10:05:11;7.95;;;2.50;;
70026;SDS011;57506;50.092;15.804;2022-09-29T10:07:39;10.27;;;3.40;;
70026;SDS011;57506;50.092;15.804;2022-09-29T10:10:12;4.70;;;2.30;;
70026;SDS011;57506;50.092;15.804;2022-09-29T10:12:56;7.20;;;3.70;;
70026;SDS011;57506;50.092;15.804;2022-09-29T10:15:28;6.20;;;3.10;;
70026;SDS011;57506;50.092;15.804;2022-09-29T10:18:17;6.18;;;3.00;;
70026;SDS011;57506;50.092;15.804;2022-09-29T10:20:47;6.65;;;2.95;;
70026;SDS011;57506;50.092;15.804;2022-09-29T10:23:32;7.88;;;3.25;;
70026;SDS011;57506;50.092;15.804;2022-09-29T10:33:46;5.63;;;3.08;;
70026;SDS011;57506;50.092;15.804;2022-09-29T10:36:14;6.07;;;2.78;;
70026;SDS011;57506;50.092;15.804;2022-09-29T10:38:44;5.53;;;2.83;;
70026;SDS011;57506;50.092;15.804;2022-09-29T10:41:11;8.65;;;2.85;;
70026;SDS011;57506;50.092;15.804;2022-09-29T10:43:38;7.32;;;2.70;;
70026;SDS011;57506;50.092;15.804;2022-09-29T10:46:04;5.83;;;2.80;;
70026;SDS011;57506;50.092;15.804;2022-09-29T10:49:33;5.93;;;2.83;;
70026;SDS011;57506;50.092;15.804;2022-09-29T10:52:01;5.82;;;2.60;;
70026;SDS011;57506;50.092;15.804;2022-09-29T10:54:31;4.70;;;2.42;;
70026;SDS011;57506;50.092;15.804;2022-09-29T10:56:59;5.63;;;2.15;;
70026;SDS011;57506;50.092;15.804;2022-09-29T10:59:49;6.67;;;2.20;;
70026;SDS011;57506;50.092;15.804;2022-09-29T11:05:01;7.10;;;2.85;;
70026;SDS011;57506;50.092;15.804;2022-09-29T11:07:41;5.00;;;2.10;;
70026;SDS011;57506;50.092;15.804;2022-09-29T11:10:25;6.60;;;2.22;;
70026;SDS011;57506;50.092;15.804;2022-09-29T11:12:56;6.27;;;2.30;;
70026;SDS011;57506;50.092;15.804;2022-09-29T11:15:28;5.18;;;2.33;;
70026;SDS011;57506;50.092;15.804;2022-09-29T11:18:16;5.35;;;2.40;;
70026;SDS011;57506;50.092;15.804;2022-09-29T11:20:46;5.00;;;2.13;;
70026;SDS011;57506;50.092;15.804;2022-09-29T11:45:03;4.45;;;1.80;;
70026;SDS011;57506;50.092;15.804;2022-09-29T12:03:47;6.70;;;3.67;;
70026;SDS011;57506;50.092;15.804;2022-09-29T12:11:52;7.50;;;3.35;;
70026;SDS011;57506;50.092;15.804;2022-09-29T12:17:15;5.57;;;2.97;;
70026;SDS011;57506;50.092;15.804;2022-09-29T12:19:43;8.30;;;3.03;;
70026;SDS011;57506;50.092;15.804;2022-09-29T12:22:12;4.53;;;1.90;;
70026;SDS011;57506;50.092;15.804;2022-09-29T12:24:44;4.63;;;2.00;;
70026;SDS011;57506;50.092;15.804;2022-09-29T12:27:25;7.40;;;3.25;;
70026;SDS011;57506;50.092;15.804;2022-09-29T12:32:35;7.05;;;3.45;;
70026;SDS011;57506;50.092;15.804;2022-09-29T12:35:08;6.20;;;2.88;;
70026;SDS011;57506;50.092;15.804;2022-09-29T12:37:49;5.80;;;3.20;;
70026;SDS011;57506;50.092;15.804;2022-09-29T12:40:37;7.85;;;3.47;;
70026;SDS011;57506;50.092;15.804;2022-09-29T12:45:43;6.78;;;3.63;;
70026;SDS011;57506;50.092;15.804;2022-09-29T12:57:11;6.60;;;4.50;;
70026;SDS011;57506;50.092;15.804;2022-09-29T12:59:42;7.93;;;4.82;;
70026;SDS011;57506;50.092;15.804;2022-09-29T13:24:26;6.55;;;3.90;;
70026;SDS011;57506;50.092;15.804;2022-09-29T13:30:23;8.23;;;4.17;;
70026;SDS011;57506;50.092;15.804;2022-09-29T13:32:41;6.20;;;3.30;;
70026;SDS011;57506;50.092;15.804;2022-09-29T13:35:12;6.95;;;3.67;;
70026;SDS011;57506;50.092;15.804;2022-09-29T13:37:42;7.18;;;3.65;;
70026;SDS011;57506;50.092;15.804;2022-09-29T13:40:15;8.55;;;3.65;;
70026;SDS011;57506;50.092;15.804;2022-09-29T13:42:45;5.97;;;3.10;;
70026;SDS011;57506;50.092;15.804;2022-09-29T13:45:33;5.60;;;3.10;;
70026;SDS011;57506;50.092;15.804;2022-09-29T13:50:52;7.72;;;3.33;;
70026;SDS011;57506;50.092;15.804;2022-09-29T13:58:28;7.32;;;3.10;;
70026;SDS011;57506;50.092;15.804;2022-09-29T14:01:27;6.47;;;2.75;;
70026;SDS011;57506;50.092;15.804;2022-09-29T14:03:56;5.77;;;2.73;;
70026;SDS011;57506;50.092;15.804;2022-09-29T14:06:23;5.00;;;2.58;;
70026;SDS011;57506;50.092;15.804;2022-09-29T14:12:03;4.82;;;2.40;;
70026;SDS011;57506;50.092;15.804;2022-09-29T14:14:41;5.00;;;2.22;;
70026;SDS011;57506;50.092;15.804;2022-09-29T14:19:47;5.05;;;2.75;;
70026;SDS011;57506;50.092;15.804;2022-09-29T14:35:32;4.85;;;2.30;;
70026;SDS011;57506;50.092;15.804;2022-09-29T14:52:41;5.83;;;2.70;;
70026;SDS011;57506;50.092;15.804;2022-09-29T14:55:27;5.72;;;2.67;;
70026;SDS011;57506;50.092;15.804;2022-09-29T14:58:05;5.38;;;2.05;;
70026;SDS011;57506;50.092;15.804;2022-09-29T15:03:47;4.57;;;2.50;;
70026;SDS011;57506;50.092;15.804;2022-09-29T15:08:57;7.38;;;2.80;;
70026;SDS011;57506;50.092;15.804;2022-09-29T15:11:35;5.28;;;2.63;;
70026;SDS011;57506;50.092;15.804;2022-09-29T15:27:41;4.05;;;1.90;;
70026;SDS011;57506;50.092;15.804;2022-09-29T15:30:15;7.18;;;2.03;;
70026;SDS011;57506;50.092;15.804;2022-09-29T15:32:46;5.33;;;2.10;;
70026;SDS011;57506;50.092;15.804;2022-09-29T15:35:21;5.72;;;2.00;;
70026;SDS011;57506;50.092;15.804;2022-09-29T15:40:15;7.37;;;1.97;;
70026;SDS011;57506;50.092;15.804;2022-09-29T15:42:43;6.10;;;2.00;;
70026;SDS011;57506;50.092;15.804;2022-09-29T15:45:14;4.30;;;1.77;;
70026;SDS011;57506;50.092;15.804;2022-09-29T15:47:43;5.05;;;1.95;;
70026;SDS011;57506;50.092;15.804;2022-09-29T15:50:16;4.00;;;1.87;;
70026;SDS011;57506;50.092;15.804;2022-09-29T15:52:43;5.03;;;1.70;;
70026;SDS011;57506;50.092;15.804;2022-09-29T15:55:14;5.18;;;1.70;;
70026;SDS011;57506;50.092;15.804;2022-09-29T15:57:45;4.90;;;2.00;;
70026;SDS011;57506;50.092;15.804;2022-09-29T16:03:03;6.03;;;2.10;;
70026;SDS011;57506;50.092;15.804;2022-09-29T16:05:31;6.20;;;2.25;;
70026;SDS011;57506;50.092;15.804;2022-09-29T16:08:02;4.78;;;2.15;;
70026;SDS011;57506;50.092;15.804;2022-09-29T16:11:22;5.82;;;2.33;;
70026;SDS011;57506;50.092;15.804;2022-09-29T16:13:46;6.33;;;2.03;;
70026;SDS011;57506;50.092;15.804;2022-09-29T16:16:18;6.15;;;2.53;;
70026;SDS011;57506;50.092;15.804;2022-09-29T16:18:51;5.55;;;2.40;;
70026;SDS011;57506;50.092;15.804;2022-09-29T16:21:20;5.03;;;1.98;;
70026;SDS011;57506;50.092;15.804;2022-09-29T16:23:49;7.55;;;2.28;;
70026;SDS011;57506;50.092;15.804;2022-09-29T16:31:39;4.75;;;2.20;;
70026;SDS011;57506;50.092;15.804;2022-09-29T16:34:23;4.78;;;2.30;;
70026;SDS011;57506;50.092;15.804;2022-09-29T16:36:54;5.53;;;2.05;;
70026;SDS011;57506;50.092;15.804;2022-09-29T16:39:21;8.20;;;2.20;;
70026;SDS011;57506;50.092;15.804;2022-09-29T16:41:50;5.90;;;2.15;;
70026;SDS011;57506;50.092;15.804;2022-09-29T16:46:56;7.10;;;2.10;;
70026;SDS011;57506;50.092;15.804;2022-09-29T16:49:35;4.45;;;2.40;;
70026;SDS011;57506;50.092;15.804;2022-09-29T16:54:53;4.30;;;2.10;;
70026;SDS011;57506;50.092;15.804;2022-09-29T17:00:15;4.55;;;2.17;;
70026;SDS011;57506;50.092;15.804;2022-09-29T17:02:42;4.00;;;1.90;;
70026;SDS011;57506;50.092;15.804;2022-09-29T17:05:08;5.90;;;2.10;;
70026;SDS011;57506;50.092;15.804;2022-09-29T17:07:37;6.38;;;2.60;;
70026;SDS011;57506;50.092;15.804;2022-09-29T17:10:09;4.53;;;2.27;;
70026;SDS011;57506;50.092;15.804;2022-09-29T17:12:40;4.55;;;2.45;;
70026;SDS011;57506;50.092;15.804;2022-09-29T17:15:06;8.77;;;2.60;;
70026;SDS011;57506;50.092;15.804;2022-09-29T17:17:36;6.03;;;3.17;;
70026;SDS011;57506;50.092;15.804;2022-09-29T17:20:02;6.95;;;2.88;;
70026;SDS011;57506;50.092;15.804;2022-09-29T17:22:31;7.60;;;3.38;;
70026;SDS011;57506;50.092;15.804;2022-09-29T17:24:58;7.93;;;3.10;;
70026;SDS011;57506;50.092;15.804;2022-09-29T17:27:25;8.32;;;3.10;;
70026;SDS011;57506;50.092;15.804;2022-09-29T17:30:13;5.80;;;3.10;;
70026;SDS011;57506;50.092;15.804;2022-09-29T17:32:45;5.93;;;2.80;;
70026;SDS011;57506;50.092;15.804;2022-09-29T17:35:17;7.20;;;2.85;;
70026;SDS011;57506;50.092;15.804;2022-09-29T17:37:45;5.23;;;2.80;;
70026;SDS011;57506;50.092;15.804;2022-09-29T17:42:49;7.10;;;3.00;;
70026;SDS011;57506;50.092;15.804;2022-09-29T17:45:15;6.23;;;2.93;;
70026;SDS011;57506;50.092;15.804;2022-09-29T17:47:42;6.88;;;2.80;;
70026;SDS011;57506;50.092;15.804;2022-09-29T17:53:00;5.40;;;2.85;;
70026;SDS011;57506;50.092;15.804;2022-09-29T17:55:28;5.18;;;2.38;;
70026;SDS011;57506;50.092;15.804;2022-09-29T17:57:55;9.63;;;2.73;;
70026;SDS011;57506;50.092;15.804;2022-09-29T18:00:32;5.45;;;2.35;;
70026;SDS011;57506;50.092;15.804;2022-09-29T18:03:03;5.55;;;2.53;;
70026;SDS011;57506;50.092;15.804;2022-09-29T18:05:30;5.55;;;2.65;;
70026;SDS011;57506;50.092;15.804;2022-09-29T18:07:58;5.55;;;2.63;;
70026;SDS011;57506;50.092;15.804;2022-09-29T18:13:02;9.10;;;3.50;;
70026;SDS011;57506;50.092;15.804;2022-09-29T18:15:28;10.73;;;4.03;;
70026;SDS011;57506;50.092;15.804;2022-09-29T18:17:57;11.55;;;5.30;;
70026;SDS011;57506;50.092;15.804;2022-09-29T18:20:26;15.68;;;5.78;;
70026;SDS011;57506;50.092;15.804;2022-09-29T18:22:54;12.27;;;5.60;;
70026;SDS011;57506;50.092;15.804;2022-09-29T18:25:23;12.75;;;5.90;;
70026;SDS011;57506;50.092;15.804;2022-09-29T18:27:50;11.05;;;6.30;;
70026;SDS011;57506;50.092;15.804;2022-09-29T18:30:26;12.45;;;6.53;;
70026;SDS011;57506;50.092;15.804;2022-09-29T18:32:58;20.13;;;9.65;;
70026;SDS011;57506;50.092;15.804;2022-09-29T18:35:25;19.93;;;8.17;;
70026;SDS011;57506;50.092;15.804;2022-09-29T18:37:53;12.60;;;6.22;;
70026;SDS011;57506;50.092;15.804;2022-09-29T18:40:19;15.10;;;7.07;;
70026;SDS011;57506;50.092;15.804;2022-09-29T18:42:48;14.52;;;7.43;;
70026;SDS011;57506;50.092;15.804;2022-09-29T18:45:17;17.13;;;7.00;;
70026;SDS011;57506;50.092;15.804;2022-09-29T18:47:47;13.38;;;6.60;;
70026;SDS011;57506;50.092;15.804;2022-09-29T18:50:14;22.98;;;10.85;;
70026;SDS011;57506;50.092;15.804;2022-09-29T18:52:45;31.48;;;14.10;;
70026;SDS011;57506;50.092;15.804;2022-09-29T18:55:12;15.25;;;7.53;;
70026;SDS011;57506;50.092;15.804;2022-09-29T18:57:38;11.97;;;6.40;;
70026;SDS011;57506;50.092;15.804;2022-09-29T19:00:05;13.73;;;6.22;;
70026;SDS011;57506;50.092;15.804;2022-09-29T19:02:36;11.13;;;6.05;;
70026;SDS011;57506;50.092;15.804;2022-09-29T19:05:03;10.00;;;6.00;;
70026;SDS011;57506;50.092;15.804;2022-09-29T19:07:30;12.80;;;6.85;;
70026;SDS011;57506;50.092;15.804;2022-09-29T19:09:55;12.00;;;7.07;;